Time;durP1;ratioP1;P1;durP2;ratioP2;P2;SDS_P1;SDS_P2;PMS_P1;PMS_P2;Temp;Humidity;BMP_temperature;BMP_pressure;BME280_temperature;BME280_humidity;BME280_pressure;Samples;Min_cycle;Max_cycle;Signal;HPM_P1;HPM_P2
2022/11/22 00:00:17;;;;;;;;;;;;;;;17.35;67.99;100740.91;5086844;28;19934;-85
2022/11/22 00:02:44;;;;;;;;;;;;;;;17.36;67.62;100737.44;5091520;28;19924;-87
2022/11/22 00:05:09;;;;;;;;;;;;;;;17.39;67.52;100758.63;5062087;28;19916;-89
2022/11/22 00:07:36;;;;;;;;;;;;;;;17.37;68.21;100759.44;5064046;28;20007;-90
2022/11/22 00:10:02;;;;;;;;;;;;;;;17.37;69.38;100762.06;5070211;28;20357;-89
2022/11/22 00:12:27;;;;;;;;;;;;;;;17.33;68.27;100770.75;5054264;28;19951;-90
2022/11/22 00:14:59;;;;;;;;;;;;;;;17.32;67.72;100776.91;5048878;28;20386;-89
2022/11/22 00:17:25;;;;;;;;;;;;;;;17.31;67.53;100773.34;5079343;28;20266;-89
2022/11/22 00:19:52;;;;;;;;;;;;;;;17.25;67.60;100791.66;5078999;28;19919;-89
2022/11/22 00:22:17;;;;;;;;;;;;;;;17.26;67.27;100790.81;5057376;28;19970;-89
2022/11/22 00:24:53;;;;;;;;;;;;;;;17.32;67.57;100795.38;5058338;28;19916;-89
2022/11/22 00:27:21;;;;;;;;;;;;;;;17.28;68.12;100800.56;5078169;28;19913;-89
2022/11/22 00:29:46;;;;;;;;;;;;;;;17.30;67.89;100785.66;5086161;28;19920;-88
2022/11/22 00:32:13;;;;;;;;;;;;;;;17.34;68.21;100777.84;5087455;28;20359;-89
2022/11/22 00:34:39;;;;;;;;;;;;;;;17.25;66.67;100776.75;5058549;28;19999;-88
2022/11/22 00:37:06;;;;;;;;;;;;;;;17.27;68.81;100784.69;5078247;28;19915;-88
2022/11/22 00:39:32;;;;;;;;;;;;;;;17.18;67.03;100792.34;5082874;28;19916;-88
2022/11/22 00:41:57;;;;;;;;;;;;;;;17.22;66.59;100788.94;5064821;28;20007;-87
2022/11/22 00:44:25;;;;;;;;;;;;;;;17.19;67.72;100788.88;5057436;28;20368;-87
2022/11/22 00:46:50;;;;;;;;;;;;;;;17.19;67.15;100779.22;5057233;28;19963;-89
2022/11/22 00:49:17;;;;;;;;;;;;;;;17.26;67.36;100773.25;5074767;28;20495;-89
2022/11/22 00:51:44;;;;;;;;;;;;;;;17.25;67.23;100767.91;5076214;28;19912;-89
2022/11/22 00:54:11;;;;;;;;;;;;;;;17.16;67.73;100781.75;5057743;28;19965;-90
2022/11/22 00:56:37;;;;;;;;;;;;;;;17.13;66.72;100781.69;5060297;28;19916;-90
2022/11/22 00:59:02;;;;;;;;;;;;;;;17.14;66.51;100772.00;5056564;28;20313;-90
2022/11/22 01:01:28;;;;;;;;;;;;;;;17.13;66.73;100772.88;5081264;28;19920;-90
2022/11/22 01:03:53;;;;;;;;;;;;;;;17.12;67.89;100776.34;5070230;28;19922;-89
2022/11/22 01:06:20;;;;;;;;;;;;;;;17.12;67.24;100766.69;5076547;28;19912;-90
2022/11/22 01:08:47;;;;;;;;;;;;;;;17.08;66.75;100764.81;5087254;28;19915;-90
2022/11/22 01:11:14;;;;;;;;;;;;;;;17.08;66.66;100768.38;5062350;28;19920;-90
2022/11/22 01:13:41;;;;;;;;;;;;;;;17.02;66.52;100775.22;5063926;28;19951;-89
2022/11/22 01:16:07;;;;;;;;;;;;;;;17.01;67.67;100781.34;5061080;28;19989;-89
2022/11/22 01:18:33;;;;;;;;;;;;;;;16.99;68.22;100785.69;5076565;28;19920;-89
2022/11/22 01:20:58;;;;;;;;;;;;;;;16.99;66.89;100770.72;5072324;28;19912;-90
2022/11/22 01:23:24;;;;;;;;;;;;;;;17.00;66.86;100754.06;5080149;28;20386;-89
2022/11/22 01:25:50;;;;;;;;;;;;;;;16.94;66.69;100750.38;5055802;28;19916;-90
2022/11/22 01:28:16;;;;;;;;;;;;;;;16.94;67.07;100759.19;5073840;28;19912;-89
2022/11/22 01:30:41;;;;;;;;;;;;;;;16.94;67.57;100771.47;5071967;28;20370;-89
2022/11/22 01:33:07;;;;;;;;;;;;;;;16.87;66.70;100771.31;5070652;28;19912;-89
2022/11/22 01:35:37;;;;;;;;;;;;;;;16.90;66.35;100781.03;5057368;28;19947;-91
2022/11/22 01:38:06;;;;;;;;;;;;;;;16.88;67.08;100781.00;5083914;28;20006;-91
2022/11/22 01:40:33;;;;;;;;;;;;;;;16.93;66.14;100781.13;5062348;28;19912;-92
2022/11/22 01:43:01;;;;;;;;;;;;;;;16.96;67.15;100781.22;5066858;28;19943;-91
2022/11/22 01:45:29;;;;;;;;;;;;;;;16.89;65.81;100797.72;5076431;28;19920;-90
2022/11/22 01:47:58;;;;;;;;;;;;;;;16.85;67.20;100812.56;5073116;28;20377;-90
2022/11/22 01:50:25;;;;;;;;;;;;;;;16.94;66.74;100832.16;5056335;28;19913;-91
2022/11/22 01:52:52;;;;;;;;;;;;;;;16.92;68.03;100849.69;5072277;28;19912;-90
2022/11/22 01:55:20;;;;;;;;;;;;;;;16.91;67.61;100861.06;5056289;28;20365;-90
2022/11/22 01:57:51;;;;;;;;;;;;;;;16.89;67.96;100864.56;5073132;28;19916;-91
2022/11/22 02:00:16;;;;;;;;;;;;;;;16.84;66.83;100881.97;5085148;28;20374;-90
2022/11/22 02:02:46;;;;;;;;;;;;;;;16.84;66.71;100891.63;5087904;28;19991;-91
2022/11/22 02:05:14;;;;;;;;;;;;;;;16.91;67.10;100895.34;5068342;28;19975;-90
2022/11/22 02:07:50;;;;;;;;;;;;;;;16.84;68.42;100896.91;5055458;28;20049;-90
2022/11/22 02:10:16;;;;;;;;;;;;;;;16.88;67.05;100899.69;5077153;28;20363;-91
2022/11/22 02:12:44;;;;;;;;;;;;;;;16.88;67.44;100883.84;5056210;28;19959;-90
2022/11/22 02:15:11;;;;;;;;;;;;;;;16.89;67.76;100875.09;5055555;28;19923;-90
2022/11/22 02:17:36;;;;;;;;;;;;;;;16.87;67.16;100868.91;5067979;28;20297;-90
2022/11/22 02:20:02;;;;;;;;;;;;;;;16.80;67.14;100869.53;5060199;28;19920;-89
2022/11/22 02:22:31;;;;;;;;;;;;;;;16.77;68.46;100864.16;5070228;28;19965;-89
2022/11/22 02:25:11;;;;;;;;;;;;;;;16.84;67.75;100858.22;5073017;28;19916;-89
2022/11/22 02:27:37;;;;;;;;;;;;;;;16.84;66.82;100873.19;5075963;28;19921;-89
2022/11/22 02:30:02;;;;;;;;;;;;;;;16.79;68.20;100880.91;5072731;28;19912;-89
2022/11/22 02:32:28;;;;;;;;;;;;;;;16.78;67.24;100868.56;5053144;28;20361;-89
2022/11/22 02:34:53;;;;;;;;;;;;;;;16.85;66.83;100870.59;5071649;28;19924;-88
2022/11/22 02:37:23;;;;;;;;;;;;;;;16.80;68.69;100892.34;5059039;28;20309;-89
2022/11/22 02:39:51;;;;;;;;;;;;;;;16.77;67.22;100901.06;5073628;28;20034;-88
2022/11/22 02:42:16;;;;;;;;;;;;;;;16.78;67.86;100900.22;5054916;28;19958;-90
2022/11/22 02:44:41;;;;;;;;;;;;;;;16.76;68.51;100908.94;5056871;28;20006;-88
2022/11/22 02:47:08;;;;;;;;;;;;;;;16.75;67.81;100909.78;5071555;28;20436;-88
2022/11/22 02:49:33;;;;;;;;;;;;;;;16.69;67.38;100923.66;5057273;28;19917;-90
2022/11/22 02:51:59;;;;;;;;;;;;;;;16.67;68.17;100934.16;5082524;28;20285;-90
2022/11/22 02:54:24;;;;;;;;;;;;;;;16.68;67.79;100943.88;5053096;28;20409;-90
2022/11/22 02:56:50;;;;;;;;;;;;;;;16.77;67.96;100945.03;5071306;28;20312;-91
2022/11/22 02:59:16;;;;;;;;;;;;;;;16.78;68.57;100937.13;5054547;28;19908;-89
2022/11/22 03:01:41;;;;;;;;;;;;;;;16.74;67.97;100939.63;5084014;28;19930;-89
2022/11/22 03:04:07;;;;;;;;;;;;;;;16.79;68.52;100952.13;5076414;28;19912;-89
2022/11/22 03:06:32;;;;;;;;;;;;;;;16.73;68.57;100944.03;5070630;28;20003;-88
2022/11/22 03:08:59;;;;;;;;;;;;;;;16.75;67.43;100937.06;5068495;28;19915;-89
2022/11/22 03:11:24;;;;;;;;;;;;;;;16.73;67.76;100936.09;5072975;28;19916;-88
2022/11/22 03:13:50;;;;;;;;;;;;;;;16.80;67.63;100940.75;5065190;28;20464;-88
2022/11/22 03:16:16;;;;;;;;;;;;;;;16.75;68.28;100936.16;5078786;28;20309;-89
2022/11/22 03:18:42;;;;;;;;;;;;;;;16.75;68.48;100947.59;5059193;28;19961;-89
2022/11/22 03:21:08;;;;;;;;;;;;;;;16.68;67.73;100945.63;5065866;28;19963;-88
2022/11/22 03:23:34;;;;;;;;;;;;;;;16.63;68.39;100945.44;5088710;28;19920;-88
2022/11/22 03:26:05;;;;;;;;;;;;;;;16.71;68.43;100947.47;5082167;28;19916;-88
2022/11/22 03:28:30;;;;;;;;;;;;;;;16.68;68.00;100938.59;5056519;28;20317;-88
2022/11/22 03:30:56;;;;;;;;;;;;;;;16.72;68.30;100947.53;5066708;28;19912;-89
2022/11/22 03:33:21;;;;;;;;;;;;;;;16.68;68.05;100949.16;5050701;28;20421;-89
2022/11/22 03:35:47;;;;;;;;;;;;;;;16.63;67.95;100942.81;5068672;28;19919;-89
2022/11/22 03:38:12;;;;;;;;;;;;;;;16.74;68.94;100944.91;5071253;28;19912;-89
2022/11/22 03:40:38;;;;;;;;;;;;;;;16.74;68.15;100942.28;5081600;28;20407;-90
2022/11/22 03:43:03;;;;;;;;;;;;;;;16.77;68.56;100938.00;5053375;28;20385;-89
2022/11/22 03:45:29;;;;;;;;;;;;;;;16.69;68.66;100932.47;5057311;28;19965;-89
2022/11/22 03:47:55;;;;;;;;;;;;;;;16.66;68.75;100935.03;5056745;28;19939;-90
2022/11/22 03:50:22;;;;;;;;;;;;;;;16.67;68.26;100922.72;5049814;28;19983;-90
2022/11/22 03:52:48;;;;;;;;;;;;;;;16.70;68.60;100930.75;5076570;28;20302;-89
2022/11/22 03:55:13;;;;;;;;;;;;;;;16.75;68.14;100923.88;5057636;28;19922;-89
2022/11/22 03:57:40;;;;;;;;;;;;;;;16.57;68.41;100902.19;5058720;28;19912;-89
2022/11/22 04:00:07;;;;;;;;;;;;;;;16.60;68.13;100919.00;5073249;28;20011;-88
2022/11/22 04:02:33;;;;;;;;;;;;;;;16.63;67.65;100923.47;5072628;28;19942;-88
2022/11/22 04:04:59;;;;;;;;;;;;;;;16.58;68.49;100928.59;5083299;28;19923;-91
2022/11/22 04:07:26;;;;;;;;;;;;;;;16.60;68.03;100926.91;5075826;28;19934;-88
2022/11/22 04:09:52;;;;;;;;;;;;;;;16.63;68.16;100934.00;5064215;28;19912;-88
2022/11/22 04:12:18;;;;;;;;;;;;;;;16.69;68.16;100935.09;5068434;28;19913;-88
2022/11/22 04:23:16;;;;;;;;;;;;;;;16.66;68.34;100920.94;5091049;28;20028;-92
2022/11/22 04:25:49;;;;;;;;;;;;;;;16.63;68.08;100918.19;5069760;28;19912;-91
2022/11/22 04:28:16;;;;;;;;;;;;;;;16.60;68.35;100923.38;5063692;28;19913;-91
2022/11/22 04:33:32;;;;;;;;;;;;;;;16.62;67.78;100926.97;5074840;28;19915;-89
2022/11/22 04:35:58;;;;;;;;;;;;;;;16.60;68.27;100929.56;5058011;28;19908;-90
2022/11/22 04:38:24;;;;;;;;;;;;;;;16.54;68.44;100924.06;5056659;28;20030;-90
2022/11/22 04:40:50;;;;;;;;;;;;;;;16.55;68.93;100902.16;5074467;28;20302;-91
2022/11/22 04:46:13;;;;;;;;;;;;;;;16.46;68.44;100915.91;5075561;28;20336;-90
2022/11/22 04:48:39;;;;;;;;;;;;;;;16.56;67.65;100925.03;5073411;28;20003;-91
2022/11/22 04:53:49;;;;;;;;;;;;;;;16.48;68.63;100934.41;5060192;28;19962;-88
2022/11/22 04:56:15;;;;;;;;;;;;;;;16.57;67.88;100934.72;5073802;28;19908;-87
2022/11/22 04:58:41;;;;;;;;;;;;;;;16.54;68.96;100936.38;5056703;28;19909;-90
2022/11/22 05:01:28;;;;;;;;;;;;;;;16.44;68.84;100935.16;5054592;28;19912;-91
2022/11/22 05:03:55;;;;;;;;;;;;;;;16.56;68.56;100934.69;5060947;28;19922;-92
2022/11/22 05:06:20;;;;;;;;;;;;;;;16.55;68.74;100943.41;5052203;28;19909;-92
2022/11/22 05:08:46;;;;;;;;;;;;;;;16.48;69.21;100942.31;5058433;28;20339;-86
2022/11/22 05:11:11;;;;;;;;;;;;;;;16.54;68.69;100939.91;5058147;28;20340;-89
2022/11/22 05:13:39;;;;;;;;;;;;;;;16.50;68.97;100940.63;5079814;28;20429;-89
2022/11/22 05:16:08;;;;;;;;;;;;;;;16.54;68.76;100950.44;5056560;28;19955;-88
2022/11/22 05:18:34;;;;;;;;;;;;;;;16.45;69.14;100948.41;5059466;28;19916;-89
2022/11/22 05:21:09;;;;;;;;;;;;;;;16.44;68.75;100965.03;5074995;28;20374;-89
2022/11/22 05:23:53;;;;;;;;;;;;;;;16.46;69.01;100970.38;5079932;28;19981;-88
2022/11/22 05:26:22;;;;;;;;;;;;;;;16.44;68.43;100979.97;5073176;28;19916;-90
2022/11/22 05:28:48;;;;;;;;;;;;;;;16.39;68.31;100989.47;5073675;28;19908;-89
2022/11/22 05:31:15;;;;;;;;;;;;;;;16.35;68.36;100988.47;5073107;28;19912;-89
2022/11/22 05:33:44;;;;;;;;;;;;;;;16.39;68.72;101002.66;5076813;28;19943;-89
2022/11/22 05:36:23;;;;;;;;;;;;;;;16.45;68.43;101005.50;5073328;28;20442;-91
2022/11/22 05:39:03;;;;;;;;;;;;;;;16.28;68.58;101011.09;5074841;28;19916;-91
2022/11/22 05:41:54;;;;;;;;;;;;;;;16.38;68.39;101025.50;5073418;28;19920;-91
2022/11/22 05:44:21;;;;;;;;;;;;;;;16.32;68.06;101027.91;5073347;28;19908;-92
2022/11/22 05:46:55;;;;;;;;;;;;;;;16.30;68.58;101034.88;5055217;28;20014;-91
2022/11/22 05:49:24;;;;;;;;;;;;;;;16.28;68.35;101026.00;5057153;28;19909;-91
2022/11/22 05:52:07;;;;;;;;;;;;;;;16.34;68.53;101031.50;5056539;28;19978;-94
2022/11/22 05:54:33;;;;;;;;;;;;;;;16.32;68.41;101033.19;5073485;28;20355;-89
2022/11/22 05:56:58;;;;;;;;;;;;;;;16.32;68.63;101037.53;5055679;28;19909;-89
2022/11/22 05:59:23;;;;;;;;;;;;;;;16.27;68.15;101040.00;5080196;28;20003;-89
2022/11/22 06:01:49;;;;;;;;;;;;;;;16.24;68.60;101046.06;5056567;28;20016;-90
2022/11/22 06:04:14;;;;;;;;;;;;;;;16.25;68.04;101054.88;5069404;28;20416;-89
2022/11/22 06:06:40;;;;;;;;;;;;;;;16.28;68.96;101058.53;5055860;28;20417;-90
2022/11/22 06:09:09;;;;;;;;;;;;;;;16.24;68.89;101064.53;5062291;28;20313;-91
2022/11/22 06:11:40;;;;;;;;;;;;;;;16.20;68.97;101067.88;5088458;28;20449;-94
2022/11/22 06:14:07;;;;;;;;;;;;;;;16.21;68.59;101066.13;5058446;28;20518;-90
2022/11/22 06:16:33;;;;;;;;;;;;;;;16.25;68.83;101074.22;5100306;28;19938;-90
2022/11/22 06:18:58;;;;;;;;;;;;;;;16.24;68.44;101082.09;5063402;28;19955;-89
2022/11/22 06:21:25;;;;;;;;;;;;;;;16.20;68.53;101080.19;5072125;28;20522;-89
2022/11/22 06:23:52;;;;;;;;;;;;;;;16.23;67.85;101075.00;5054435;28;20394;-91
2022/11/22 06:26:18;;;;;;;;;;;;;;;16.16;68.15;101075.63;5054466;28;20007;-90
2022/11/22 06:28:46;;;;;;;;;;;;;;;16.22;68.68;101089.03;5055148;28;19952;-90
2022/11/22 06:31:13;;;;;;;;;;;;;;;16.19;67.68;101095.09;5072656;28;19909;-88
2022/11/22 06:33:40;;;;;;;;;;;;;;;16.21;67.43;101093.41;5071467;28;19938;-88
2022/11/22 06:36:10;;;;;;;;;;;;;;;16.19;68.05;101100.38;5054957;28;19962;-90
2022/11/22 06:38:41;;;;;;;;;;;;;;;16.14;68.48;101107.19;5055424;28;19912;-90
2022/11/22 06:41:09;;;;;;;;;;;;;;;16.05;68.97;101112.13;5069420;28;20379;-91
2022/11/22 06:43:37;;;;;;;;;;;;;;;16.02;67.96;101106.72;5051759;28;19919;-91
2022/11/22 06:46:03;;;;;;;;;;;;;;;16.04;67.91;101102.41;5071297;28;20401;-90
2022/11/22 06:48:29;;;;;;;;;;;;;;;16.04;68.70;101105.06;5065508;28;19909;-90
2022/11/22 06:51:02;;;;;;;;;;;;;;;16.04;68.07;101110.31;5059867;28;19912;-89
2022/11/22 06:53:29;;;;;;;;;;;;;;;16.07;68.37;101108.69;5084301;28;19916;-90
2022/11/22 06:56:10;;;;;;;;;;;;;;;16.10;68.37;101118.44;5062686;28;19913;-91
2022/11/22 06:58:36;;;;;;;;;;;;;;;16.05;68.32;101114.75;5066915;28;20283;-88
2022/11/22 07:01:08;;;;;;;;;;;;;;;16.02;68.76;101119.91;5071674;28;19912;-90
2022/11/22 07:03:34;;;;;;;;;;;;;;;16.04;68.15;101120.84;5067461;28;19908;-90
2022/11/22 07:06:00;;;;;;;;;;;;;;;16.09;68.17;101127.22;5065514;28;20381;-89
2022/11/22 07:08:25;;;;;;;;;;;;;;;16.08;68.67;101121.03;5079951;28;19966;-89
2022/11/22 07:10:52;;;;;;;;;;;;;;;16.00;68.74;101129.47;5054868;28;19915;-90
2022/11/22 07:13:18;;;;;;;;;;;;;;;16.00;67.79;101134.75;5051613;28;19991;-90
2022/11/22 07:15:49;;;;;;;;;;;;;;;16.02;67.64;101134.00;5068919;28;19922;-89
2022/11/22 07:18:14;;;;;;;;;;;;;;;15.95;68.77;101139.84;5061430;28;19912;-90
2022/11/22 07:20:41;;;;;;;;;;;;;;;16.03;68.41;101148.94;5054008;28;20416;-90
2022/11/22 07:23:09;;;;;;;;;;;;;;;15.99;69.02;101148.78;5062532;28;19908;-90
2022/11/22 07:25:34;;;;;;;;;;;;;;;15.93;67.90;101153.81;5083247;28;19912;-91
2022/11/22 07:28:00;;;;;;;;;;;;;;;16.02;67.70;101156.78;5087060;28;19991;-89
2022/11/22 07:30:25;;;;;;;;;;;;;;;15.93;67.76;101159.97;5071549;28;19963;-88
2022/11/22 07:32:53;;;;;;;;;;;;;;;15.97;68.13;101167.16;5071316;28;19909;-89
2022/11/22 07:35:18;;;;;;;;;;;;;;;15.93;68.67;101165.22;5071063;28;19909;-88
2022/11/22 07:37:44;;;;;;;;;;;;;;;15.94;68.77;101161.78;5054051;28;20031;-89
2022/11/22 07:40:10;;;;;;;;;;;;;;;15.94;68.34;101158.22;5070620;28;19913;-89
2022/11/22 07:42:39;;;;;;;;;;;;;;;15.96;68.30;101167.06;5072349;28;20420;-86
2022/11/22 07:45:04;;;;;;;;;;;;;;;15.95;68.00;101165.31;5071427;28;19912;-89
2022/11/22 07:47:30;;;;;;;;;;;;;;;15.93;68.05;101159.97;5070804;28;20484;-89
2022/11/22 07:49:56;;;;;;;;;;;;;;;15.91;67.86;101161.63;5070246;28;19916;-88
2022/11/22 07:52:24;;;;;;;;;;;;;;;15.95;68.63;101168.81;5057998;28;20007;-87
2022/11/22 07:54:50;;;;;;;;;;;;;;;15.98;68.39;101166.31;5064773;28;19908;-88
2022/11/22 07:57:15;;;;;;;;;;;;;;;15.95;67.96;101155.66;5064242;28;19961;-87
2022/11/22 07:59:41;;;;;;;;;;;;;;;15.93;68.32;101164.34;5067321;28;20374;-88
2022/11/22 08:02:08;;;;;;;;;;;;;;;16.00;68.46;101162.00;5081202;28;20392;-88
2022/11/22 08:04:34;;;;;;;;;;;;;;;15.98;68.61;101162.75;5078021;28;19915;-89
2022/11/22 08:06:59;;;;;;;;;;;;;;;15.87;68.95;101170.25;5067498;28;19908;-88
2022/11/22 08:09:25;;;;;;;;;;;;;;;15.90;68.79;101173.03;5060324;28;20391;-86
2022/11/22 08:11:51;;;;;;;;;;;;;;;15.94;68.46;101166.13;5069292;28;20430;-84
2022/11/22 08:14:17;;;;;;;;;;;;;;;15.93;68.65;101174.88;5083693;28;19920;-86
2022/11/22 08:16:42;;;;;;;;;;;;;;;15.95;68.07;101171.44;5070279;28;19931;-86
2022/11/22 08:19:07;;;;;;;;;;;;;;;15.91;68.34;101185.34;5070761;28;19998;-84
2022/11/22 08:21:33;;;;;;;;;;;;;;;15.84;68.35;101188.59;5053270;28;19934;-84
2022/11/22 08:23:58;;;;;;;;;;;;;;;15.90;68.63;101187.94;5085673;28;19908;-85
2022/11/22 08:26:25;;;;;;;;;;;;;;;15.92;68.28;101191.50;5086692;28;19913;-87
2022/11/22 08:28:50;;;;;;;;;;;;;;;15.87;68.26;101181.72;5069448;28;19912;-86
2022/11/22 08:31:17;;;;;;;;;;;;;;;15.82;68.32;101182.38;5069925;28;20003;-84
2022/11/22 08:33:43;;;;;;;;;;;;;;;15.87;68.31;101176.44;5070641;28;19908;-86
2022/11/22 08:36:11;;;;;;;;;;;;;;;15.79;68.44;101179.59;5069610;28;19915;-86
2022/11/22 08:38:37;;;;;;;;;;;;;;;15.81;68.59;101180.56;5071041;28;20342;-86
2022/11/22 08:41:03;;;;;;;;;;;;;;;15.81;68.42;101186.75;5060879;28;19913;-86
2022/11/22 08:43:28;;;;;;;;;;;;;;;15.84;68.61;101178.06;5056551;28;19908;-85
2022/11/22 08:45:55;;;;;;;;;;;;;;;15.83;68.50;101177.16;5062947;28;19915;-86
2022/11/22 08:48:21;;;;;;;;;;;;;;;15.86;68.79;101171.13;5073254;28;19951;-85
2022/11/22 08:50:53;;;;;;;;;;;;;;;15.81;68.73;101167.38;5073315;28;20367;-86
2022/11/22 08:53:18;;;;;;;;;;;;;;;15.84;68.65;101157.88;5060527;28;19909;-87
2022/11/22 08:55:44;;;;;;;;;;;;;;;15.91;68.50;101158.13;5073475;28;19912;-86
2022/11/22 08:58:10;;;;;;;;;;;;;;;15.90;68.58;101148.44;5073333;28;19912;-85
2022/11/22 09:00:35;;;;;;;;;;;;;;;15.88;68.29;101145.72;5067337;28;19917;-85
2022/11/22 09:03:00;;;;;;;;;;;;;;;15.92;68.55;101149.34;5065947;28;20393;-87
2022/11/22 09:05:26;;;;;;;;;;;;;;;15.93;68.41;101138.00;5076129;28;20389;-86
2022/11/22 09:07:51;;;;;;;;;;;;;;;15.83;68.95;101145.56;5081994;28;19915;-86
2022/11/22 09:10:17;;;;;;;;;;;;;;;15.87;68.84;101149.19;5096113;28;19908;-86
2022/11/22 09:12:43;;;;;;;;;;;;;;;15.85;68.70;101150.88;5090112;28;20349;-86
2022/11/22 09:15:09;;;;;;;;;;;;;;;15.84;68.46;101154.34;5078997;28;19916;-85
2022/11/22 09:17:34;;;;;;;;;;;;;;;15.85;68.60;101150.88;5072351;28;20046;-86
2022/11/22 09:20:00;;;;;;;;;;;;;;;15.85;68.40;101136.00;5089679;28;19908;-86
2022/11/22 09:22:25;;;;;;;;;;;;;;;15.84;68.29;101136.81;5073566;28;19908;-86
2022/11/22 09:24:51;;;;;;;;;;;;;;;15.84;68.79;101128.91;5062943;28;19909;-86
2022/11/22 09:27:16;;;;;;;;;;;;;;;15.91;68.53;101129.16;5050941;28;19909;-86
2022/11/22 09:29:42;;;;;;;;;;;;;;;15.83;68.26;101129.75;5082384;28;19909;-87
2022/11/22 09:32:10;;;;;;;;;;;;;;;15.75;68.34;101123.31;5066018;28;19912;-85
2022/11/22 09:34:35;;;;;;;;;;;;;;;15.82;68.64;101127.06;5072838;28;19912;-86
2022/11/22 09:37:01;;;;;;;;;;;;;;;15.74;68.63;101131.13;5066004;28;20348;-87
2022/11/22 09:39:27;;;;;;;;;;;;;;;15.85;68.54;101135.06;5072746;28;20274;-87
2022/11/22 09:42:04;;;;;;;;;;;;;;;15.84;68.59;101135.91;5052030;28;19919;-87
2022/11/22 09:44:32;;;;;;;;;;;;;;;15.75;68.88;101128.56;5066509;28;19951;-85
2022/11/22 09:46:58;;;;;;;;;;;;;;;15.71;69.05;101139.78;5055995;28;19909;-87
2022/11/22 09:49:42;;;;;;;;;;;;;;;15.76;68.53;101132.97;5073408;28;19981;-87
2022/11/22 09:52:14;;;;;;;;;;;;;;;15.76;68.60;101140.88;5073467;28;20271;-87
2022/11/22 09:54:39;;;;;;;;;;;;;;;15.70;68.49;101139.72;5059369;28;19908;-86
2022/11/22 09:57:07;;;;;;;;;;;;;;;15.72;68.67;101133.69;5067163;28;19919;-87
2022/11/22 09:59:33;;;;;;;;;;;;;;;15.70;68.76;101140.59;5064468;28;20400;-86
2022/11/22 10:02:06;;;;;;;;;;;;;;;15.68;68.41;101139.66;5088553;28;19912;-86
2022/11/22 10:04:36;;;;;;;;;;;;;;;15.68;68.45;101132.66;5072151;28;19908;-86
2022/11/22 10:07:07;;;;;;;;;;;;;;;15.67;68.31;101135.22;5071948;28;20275;-86
2022/11/22 10:10:04;;;;;;;;;;;;;;;15.66;68.40;101123.81;5082054;28;19919;-86
2022/11/22 10:12:45;;;;;;;;;;;;;;;;;;;;;
2022/11/22 10:18:51;;;;;;;;;;;;;;;;;;;;;
2022/11/22 10:21:35;;;;;;;;;;;;;;;15.60;68.70;101120.94;5005807;28;19914;-85
2022/11/22 10:24:36;;;;;;;;;;;;;;;15.60;68.74;101131.47;5011385;28;19920;-86
2022/11/22 10:27:20;;;;;;;;;;;;;;;15.60;67.77;101128.84;4991895;28;20384;-84
2022/11/22 10:29:45;;;;;;;;;;;;;;;15.54;68.63;101125.97;4987939;28;19921;-85
2022/11/22 10:32:36;;;;;;;;;;;;;;;15.55;68.06;101117.19;4992373;28;19917;-85
2022/11/22 10:38:22;;;;;;;;;;;;;;;15.68;68.21;101110.69;4991261;28;19932;-86
2022/11/22 10:41:16;;;;;;;;;;;;;;;;;;;;;
2022/11/22 10:46:34;;;;;;;;;;;;;;;15.51;68.75;101117.91;4975363;28;19996;-85
2022/11/22 10:49:37;;;;;;;;;;;;;;;15.54;68.54;101117.16;5036517;28;19909;-85
2022/11/22 10:55:25;;;;;;;;;;;;;;;15.55;68.41;101124.22;5043846;28;19913;-87
2022/11/22 11:04:43;;;;;;;;;;;;;;;15.44;68.30;101108.00;4978199;28;20338;-87
2022/11/22 11:07:36;;;;;;;;;;;;;;;15.49;68.65;101114.31;4989856;28;19913;-87
2022/11/22 11:10:23;;;;;;;;;;;;;;;15.52;68.38;101108.31;4990122;28;20435;-86
2022/11/22 11:15:42;;;;;;;;;;;;;;;15.49;68.64;101109.06;4998506;28;20406;-87
2022/11/22 11:21:26;;;;;;;;;;;;;;;15.53;67.86;101108.34;4951431;29;19914;-86
2022/11/22 11:23:52;;;;;;;;;;;;;;;15.48;68.27;101109.91;4955323;28;19917;-86
2022/11/22 11:26:25;;;;;;;;;;;;;;;15.53;67.70;101107.47;5000966;28;20388;-87
2022/11/22 11:28:50;;;;;;;;;;;;;;;15.53;67.74;101102.19;5008267;28;19909;-86
2022/11/22 11:31:17;;;;;;;;;;;;;;;15.48;68.48;101108.16;5009584;28;19917;-86
2022/11/22 11:33:44;;;;;;;;;;;;;;;15.51;68.02;101103.88;4993556;28;19909;-85
2022/11/22 11:36:14;;;;;;;;;;;;;;;15.45;68.79;101105.44;4993069;28;19960;-85
2022/11/22 11:38:39;;;;;;;;;;;;;;;15.48;68.74;101116.06;4992868;28;19952;-85
2022/11/22 11:41:16;;;;;;;;;;;;;;;15.49;68.35;101116.97;5005118;28;19926;-85
2022/11/22 11:43:42;;;;;;;;;;;;;;;15.53;68.39;101120.63;5006619;28;19916;-86
2022/11/22 11:46:18;;;;;;;;;;;;;;;15.55;67.93;101119.84;4992630;28;20004;-85
2022/11/22 11:48:43;;;;;;;;;;;;;;;15.48;68.30;101113.44;4991181;28;19909;-85
2022/11/22 11:51:16;;;;;;;;;;;;;;;15.51;68.32;101115.28;5009678;28;19919;-85
2022/11/22 11:53:43;;;;;;;;;;;;;;;15.51;69.13;101114.41;5060030;28;19909;-85
2022/11/22 11:56:23;;;;;;;;;;;;;;;15.53;68.26;101120.63;5046870;28;19909;-85
2022/11/22 11:58:52;;;;;;;;;;;;;;;15.36;68.55;101098.91;5040221;28;19909;-85
2022/11/22 12:01:19;;;;;;;;;;;;;;;15.54;68.29;101110.16;5046392;28;20370;-85
2022/11/22 12:03:49;;;;;;;;;;;;;;;15.60;67.95;101109.47;5057835;28;19909;-86
2022/11/22 12:06:15;;;;;;;;;;;;;;;15.57;68.33;101110.25;5038878;28;19980;-85
2022/11/22 12:08:40;;;;;;;;;;;;;;;15.62;68.24;101113.06;5057934;28;20401;-84
2022/11/22 12:11:11;;;;;;;;;;;;;;;15.54;68.46;101109.28;5049238;28;19958;-85
2022/11/22 12:13:56;;;;;;;;;;;;;;;15.56;68.48;101102.34;5053498;28;19909;-86
2022/11/22 12:16:26;;;;;;;;;;;;;;;15.60;68.38;101101.59;5071264;28;20030;-85
2022/11/22 12:19:10;;;;;;;;;;;;;;;15.61;68.68;101103.41;5076541;28;19915;-86
2022/11/22 12:21:54;;;;;;;;;;;;;;;15.58;68.73;101103.28;5075074;28;19923;-85
2022/11/22 12:24:38;;;;;;;;;;;;;;;15.58;68.77;101104.19;5074694;28;20028;-85
2022/11/22 12:27:03;;;;;;;;;;;;;;;15.60;68.95;101104.22;5075207;28;19915;-86
2022/11/22 12:29:29;;;;;;;;;;;;;;;15.60;68.96;101098.94;5056672;28;19908;-86
2022/11/22 12:31:56;;;;;;;;;;;;;;;15.59;68.98;101105.97;5073996;28;20617;-85
2022/11/22 12:34:32;;;;;;;;;;;;;;;15.57;69.02;101106.75;5078458;28;19908;-85
2022/11/22 12:37:01;;;;;;;;;;;;;;;15.58;69.28;101108.56;5079432;28;19970;-85
2022/11/22 12:39:27;;;;;;;;;;;;;;;15.54;69.08;101107.53;5073388;28;20923;-85
2022/11/22 12:42:13;;;;;;;;;;;;;;;15.54;69.17;101099.63;5075614;28;19918;-85
2022/11/22 12:44:39;;;;;;;;;;;;;;;15.54;69.21;101091.75;5075859;28;19919;-84
2022/11/22 12:47:15;;;;;;;;;;;;;;;15.58;69.07;101098.03;5084381;28;19909;-85
2022/11/22 12:49:42;;;;;;;;;;;;;;;15.55;68.82;101108.41;5079288;28;19912;-85
2022/11/22 12:52:39;;;;;;;;;;;;;;;15.54;68.90;101112.78;5063735;28;19950;-84
2022/11/22 12:55:15;;;;;;;;;;;;;;;15.46;69.14;101104.59;5049508;28;19912;-84
2022/11/22 12:58:07;;;;;;;;;;;;;;;15.50;69.17;101115.25;5072898;28;19908;-86
2022/11/22 13:00:39;;;;;;;;;;;;;;;15.45;69.08;101099.25;5055956;28;19968;-84
2022/11/22 13:03:12;;;;;;;;;;;;;;;15.46;69.11;101101.06;5079241;28;19915;-84
2022/11/22 13:05:53;;;;;;;;;;;;;;;15.42;69.23;101107.03;5072176;28;19908;-83
2022/11/22 13:08:23;;;;;;;;;;;;;;;15.40;69.38;101109.59;5076389;28;19909;-83
2022/11/22 13:11:06;;;;;;;;;;;;;;;15.40;69.38;101117.50;5071717;28;19935;-83
2022/11/22 13:13:45;;;;;;;;;;;;;;;15.38;69.50;101113.00;5068962;28;19917;-83
2022/11/22 13:16:11;;;;;;;;;;;;;;;15.34;69.72;101113.72;5070501;28;20445;-84
2022/11/22 13:18:39;;;;;;;;;;;;;;;15.40;69.56;101113.97;5076381;28;20072;-84
2022/11/22 13:21:08;;;;;;;;;;;;;;;15.40;69.24;101119.25;5052910;28;20389;-84
2022/11/22 13:23:35;;;;;;;;;;;;;;;15.34;69.32;101113.72;5076468;28;19912;-84
2022/11/22 13:26:01;;;;;;;;;;;;;;;15.33;69.60;101104.06;5078381;28;20366;-83
2022/11/22 13:28:28;;;;;;;;;;;;;;;15.33;69.40;101097.03;5065813;28;21379;-83
2022/11/22 13:31:06;;;;;;;;;;;;;;;15.32;69.76;101110.13;5052342;28;19915;-83